Time;durP1;ratioP1;P1;durP2;ratioP2;P2;SDS_P1;SDS_P2;PMS_P1;PMS_P2;Temp;Humidity;BMP_temperature;BMP_pressure;BME280_temperature;BME280_humidity;BME280_pressure;Samples;Min_cycle;Max_cycle;Signal;HPM_P1;HPM_P2
2023/07/18 00:00:19;;;;;;;;;24.33;24.33;;;;;21.26;100.00;99763.66;6312671;20;3598306;-51
2023/07/18 00:02:48;;;;;;;;;27.33;25.33;;;;;21.62;100.00;99766.28;6283733;20;3598157;-46
2023/07/18 00:05:17;;;;;;;;;27.00;24.00;;;;;21.63;100.00;99773.47;6283763;20;3588794;-50
2023/07/18 00:07:45;;;;;;;;;25.67;23.67;;;;;21.50;100.00;99774.94;6278200;20;3598190;-54
2023/07/18 00:10:13;;;;;;;;;27.67;25.33;;;;;21.40;100.00;99769.59;6280982;20;3595103;-50
2023/07/18 00:12:42;;;;;;;;;25.33;24.33;;;;;21.38;100.00;99771.63;6280871;20;3594042;-50
2023/07/18 00:15:13;;;;;;;;;27.00;25.25;;;;;21.37;100.00;99772.63;6283339;20;3604416;-50
2023/07/18 00:17:43;;;;;;;;;24.00;22.67;;;;;21.15;100.00;99779.47;6309289;20;3587815;-51
2023/07/18 00:20:17;;;;;;;;;22.67;22.67;;;;;21.05;100.00;99779.56;6312541;20;3598221;-50
2023/07/18 00:22:49;;;;;;;;;26.00;23.00;;;;;21.02;100.00;99779.91;6279446;20;3598282;-50
2023/07/18 00:25:20;;;;;;;;;24.33;23.00;;;;;20.99;100.00;99774.75;6279479;20;3598262;-50
2023/07/18 00:27:51;;;;;;;;;26.75;25.00;;;;;20.60;100.00;99778.69;6278376;20;3599238;-47
2023/07/18 00:30:20;;;;;;;;;22.67;22.67;;;;;20.80;100.00;99782.13;6312097;20;3602315;-50
2023/07/18 00:32:48;;;;;;;;;24.33;22.67;;;;;20.71;100.00;99774.88;6278552;20;3585819;-47
2023/07/18 00:35:17;;;;;;;;;27.00;24.00;;;;;20.38;100.00;99765.50;6281252;20;3590384;-51
2023/07/18 00:37:47;;;;;;;;;27.00;22.67;;;;;20.31;100.00;99769.88;6270655;20;3583728;-49
2023/07/18 00:40:15;;;;;;;;;25.00;20.00;;;;;20.37;100.00;99766.50;6311917;20;3564228;-49
2023/07/18 00:42:47;;;;;;;;;20.67;20.67;;;;;20.43;100.00;99768.59;6282141;20;3591981;-46
2023/07/18 00:45:15;;;;;;;;;24.00;22.00;;;;;20.67;100.00;99764.41;6284549;20;3572162;-52
2023/07/18 00:47:46;;;;;;;;;22.00;21.00;;;;;20.91;100.00;99767.38;6284416;20;3566959;-53
2023/07/18 00:50:17;;;;;;;;;20.00;17.00;;;;;20.94;100.00;99777.09;6281217;20;2833748;-49
2023/07/18 00:52:52;;;;;;;;;26.00;25.00;;;;;20.79;100.00;99774.94;6284801;20;3596493;-49
2023/07/18 00:55:21;;;;;;;;;25.00;25.00;;;;;20.85;100.00;99765.25;6284194;20;3594037;-51
2023/07/18 00:57:50;;;;;;;;;26.00;21.67;;;;;20.77;100.00;99770.66;6283655;20;3600252;-49
2023/07/18 01:00:22;;;;;;;;;21.33;20.00;;;;;20.81;100.00;99764.72;6284699;20;3572259;-48
2023/07/18 01:02:52;;;;;;;;;25.33;22.33;;;;;20.85;100.00;99767.13;6287137;20;3585745;-49
2023/07/18 01:05:22;;;;;;;;;25.67;24.00;;;;;20.67;100.00;99765.31;6281209;20;3584707;-51
2023/07/18 01:07:50;;;;;;;;;23.33;22.33;;;;;20.58;100.00;99755.31;6314197;20;3591955;-54
2023/07/18 01:10:26;;;;;;;;;22.00;21.67;;;;;20.60;100.00;99758.75;6284635;20;3582658;-49
2023/07/18 01:12:57;;;;;;;;;26.67;25.00;;;;;20.79;100.00;99764.00;6282018;20;3597085;-51
2023/07/18 01:15:29;;;;;;;;;27.00;25.00;;;;;20.92;100.00;99757.31;6283610;20;3586828;-52
2023/07/18 01:17:58;;;;;;;;;12.00;11.67;;;;;20.65;100.00;99747.38;6284922;20;2794125;-53
2023/07/18 01:20:29;;;;;;;;;19.00;19.00;;;;;20.79;100.00;99742.19;6312786;20;2835216;-56
2023/07/18 01:23:03;;;;;;;;;18.00;17.67;;;;;21.01;100.00;99742.69;6285825;20;3562771;-49
2023/07/18 01:25:34;;;;;;;;;22.00;22.00;;;;;21.10;100.00;99747.19;6280556;20;3598821;-51
2023/07/18 01:28:06;;;;;;;;;26.33;21.33;;;;;20.87;100.00;99752.31;6282982;20;3590913;-50
2023/07/18 01:30:34;;;;;;;;;22.33;20.33;;;;;20.81;100.00;99740.16;6283932;20;3576320;-50
2023/07/18 01:33:02;;;;;;;;;23.33;21.33;;;;;21.03;100.00;99748.84;6284789;20;3574385;-50
2023/07/18 01:35:31;;;;;;;;;20.00;20.00;;;;;20.90;100.00;99759.31;6285976;20;3572266;-51
2023/07/18 01:37:59;;;;;;;;;25.67;24.00;;;;;21.15;100.00;99758.50;6282982;20;3589959;-49
2023/07/18 01:40:27;;;;;;;;;24.33;22.67;;;;;21.34;100.00;99762.00;6282722;20;3596126;-49
2023/07/18 01:42:57;;;;;;;;;23.33;22.00;;;;;21.37;100.00;99761.69;6281540;20;3571216;-53
2023/07/18 01:45:27;;;;;;;;;22.33;22.33;;;;;21.46;100.00;99764.34;6283937;20;3580572;-49
2023/07/18 01:47:57;;;;;;;;;24.67;22.00;;;;;21.52;100.00;99762.81;6279607;20;3589880;-50
2023/07/18 01:50:26;;;;;;;;;24.67;22.67;;;;;21.57;100.00;99768.66;6280516;20;3589864;-52
2023/07/18 01:52:54;;;;;;;;;25.00;24.33;;;;;21.64;100.00;99763.38;6279557;20;3590900;-49
2023/07/18 01:55:22;;;;;;;;;24.00;22.67;;;;;21.64;100.00;99768.84;6284282;20;3585721;-51
2023/07/18 01:57:50;;;;;;;;;24.67;23.67;;;;;21.62;100.00;99768.19;6280180;20;3602364;-49
2023/07/18 02:00:19;;;;;;;;;26.67;25.67;;;;;21.59;100.00;99761.16;6281442;20;3583606;-50
2023/07/18 02:02:51;;;;;;;;;25.00;25.00;;;;;21.61;100.00;99752.78;6281221;20;3584705;-52
2023/07/18 02:05:27;;;;;;;;;25.00;25.00;;;;;21.55;100.00;99751.56;6283861;20;3602360;-52
2023/07/18 02:08:00;;;;;;;;;24.33;22.00;;;;;21.56;100.00;99761.47;6283309;20;3582551;-47
2023/07/18 02:10:28;;;;;;;;;22.67;22.67;;;;;21.58;100.00;99766.78;6286036;20;3594034;-50
2023/07/18 02:13:01;;;;;;;;;23.00;21.33;;;;;21.60;100.00;99765.59;6279335;20;3578413;-48
2023/07/18 02:15:30;;;;;;;;;24.67;23.67;;;;;21.64;100.00;99763.38;6282697;20;3590297;-50
2023/07/18 02:17:58;;;;;;;;;25.00;25.00;;;;;21.50;100.00;99770.31;6282384;20;3588836;-53
2023/07/18 02:20:27;;;;;;;;;25.00;25.00;;;;;21.34;100.00;99772.94;6282832;20;3589869;-53
2023/07/18 02:22:56;;;;;;;;;26.00;23.33;;;;;21.38;100.00;99768.88;6284849;20;3596207;-49
2023/07/18 02:25:24;;;;;;;;;29.33;26.67;;;;;21.45;100.00;99778.16;6285520;20;3600306;-50
2023/07/18 02:27:52;;;;;;;;;25.33;25.00;;;;;21.56;100.00;99782.47;6280179;20;3596169;-47
2023/07/18 02:30:20;;;;;;;;;25.33;23.67;;;;;21.56;100.00;99777.84;6282188;20;3594112;-51
2023/07/18 02:32:51;;;;;;;;;27.33;26.33;;;;;21.48;100.00;99780.56;6282393;20;3599233;-50
2023/07/18 02:35:21;;;;;;;;;26.33;26.33;;;;;21.40;100.00;99780.50;6285242;20;3591919;-54
2023/07/18 02:37:50;;;;;;;;;26.25;24.75;;;;;21.12;100.00;99783.38;6282372;20;3602336;-50
2023/07/18 02:40:19;;;;;;;;;25.67;24.00;;;;;21.24;100.00;99787.53;6311776;20;3599284;-47
2023/07/18 02:42:48;;;;;;;;;27.50;23.75;;;;;21.40;100.00;99789.56;6312919;20;3608607;-47
2023/07/18 02:45:16;;;;;;;;;28.00;23.67;;;;;21.36;100.00;99788.16;6315758;20;3594233;-51
2023/07/18 02:47:45;;;;;;;;;25.75;25.00;;;;;21.35;100.00;99785.56;6281291;20;3603467;-52
2023/07/18 02:50:14;;;;;;;;;25.00;21.33;;;;;21.19;100.00;99787.16;6309331;20;3587902;-50
2023/07/18 02:52:43;;;;;;;;;25.67;23.00;;;;;21.00;100.00;99784.66;6312395;20;3575287;-52
2023/07/18 02:55:11;;;;;;;;;22.33;19.00;;;;;20.74;100.00;99790.06;6281812;20;3567958;-51
2023/07/18 02:57:39;;;;;;;;;20.00;19.00;;;;;20.29;100.00;99780.91;6284388;20;3571070;-49
2023/07/18 03:00:19;;;;;;;;;22.00;19.00;;;;;20.45;100.00;99793.00;6281556;20;3573176;-49
2023/07/18 03:02:49;;;;;;;;;20.33;20.33;;;;;20.48;100.00;99795.41;6281487;20;3565938;-49
2023/07/18 03:05:21;;;;;;;;;25.67;24.33;;;;;20.01;100.00;99801.03;6276321;20;3585922;-50
2023/07/18 03:07:51;;;;;;;;;22.67;22.67;;;;;20.01;100.00;99815.56;6280853;20;3591286;-49
2023/07/18 03:10:20;;;;;;;;;20.33;20.33;;;;;20.19;100.00;99815.56;6280953;20;3577320;-50
2023/07/18 03:12:49;;;;;;;;;21.67;20.67;;;;;20.24;100.00;99815.97;6280443;20;3576527;-55
2023/07/18 03:15:19;;;;;;;;;17.33;16.00;;;;;20.29;100.00;99815.50;6281354;20;2828515;-52
2023/07/18 03:17:48;;;;;;;;;23.00;22.00;;;;;20.06;100.00;99815.06;6311848;20;3587776;-49
2023/07/18 03:20:17;;;;;;;;;18.00;18.00;;;;;19.99;100.00;99811.25;6282732;20;3566967;-48
2023/07/18 03:22:48;;;;;;;;;21.00;18.00;;;;;20.11;100.00;99818.19;6309045;20;3575343;-52
2023/07/18 03:25:17;;;;;;;;;18.00;18.00;;;;;20.17;100.00;99818.47;6312180;20;3569053;-49
2023/07/18 03:27:47;;;;;;;;;18.50;18.50;;;;;20.11;100.00;99823.66;6276214;20;2842005;-53
2023/07/18 03:30:16;;;;;;;;;17.00;17.00;;;;;20.08;100.00;99826.69;6279101;20;2841994;-48
2023/07/18 03:32:44;;;;;;;;;21.33;18.00;;;;;20.36;100.00;99831.13;6282142;20;3565912;-50
2023/07/18 03:35:14;;;;;;;;;17.00;15.50;;;;;20.62;100.00;99833.13;6276986;20;2815920;-50
2023/07/18 03:37:42;;;;;;;;;17.00;17.00;;;;;20.90;100.00;99838.47;6277725;20;2844108;-50
2023/07/18 03:40:15;;;;;;;;;14.50;14.50;;;;;20.90;100.00;99824.84;6278294;20;2813858;-53
2023/07/18 03:42:45;;;;;;;;;16.00;16.00;;;;;20.91;100.00;99823.84;6277238;20;2837780;-53
2023/07/18 03:45:14;;;;;;;;;19.00;19.00;;;;;20.95;100.00;99827.94;6282328;20;3571096;-53
2023/07/18 03:47:44;;;;;;;;;18.00;16.00;;;;;21.00;100.00;99823.72;6273110;20;2827368;-52
2023/07/18 03:50:14;;;;;;;;;18.00;16.00;;;;;;;;6280724;20;2833672;-53
2023/07/18 03:52:42;;;;;;;;;17.67;16.00;;;;;21.19;100.00;99830.84;6280457;20;3560672;-51
2023/07/18 03:55:11;;;;;;;;;18.00;18.00;;;;;21.34;100.00;99822.94;6275307;20;2844560;-54
2023/07/18 03:57:40;;;;;;;;;18.00;17.00;;;;;21.54;100.00;99834.56;6304455;20;2653384;-50
2023/07/18 04:00:17;;;;;;;;;15.67;14.33;;;;;21.54;100.00;99828.22;6312866;20;3552468;-51
2023/07/18 04:02:48;;;;;;;;;18.00;13.33;;;;;21.87;99.60;99834.72;6312158;20;3527610;-49
2023/07/18 04:05:17;;;;;;;;;14.00;14.00;;;;;21.97;99.28;99838.19;6314757;20;3530587;-50
2023/07/18 04:07:47;;;;;;;;;18.00;16.00;;;;;22.09;98.44;99823.22;6305673;20;2829482;-48
2023/07/18 04:10:15;;;;;;;;;14.00;12.33;;;;;21.93;100.00;99825.84;6278308;20;2492060;-49
2023/07/18 04:12:44;;;;;;;;;14.00;13.00;;;;;22.04;99.75;99827.47;6305932;20;3520172;-55
2023/07/18 04:15:13;;;;;;;;;17.50;16.50;;;;;21.97;100.00;99830.00;6275931;20;2826347;-54
2023/07/18 04:17:41;;;;;;;;;13.33;13.33;;;;;22.21;98.45;99836.63;6277752;20;2498337;-52
2023/07/18 04:20:10;;;;;;;;;15.00;14.50;;;;;22.29;97.71;99842.09;6311896;20;2813868;-52
2023/07/18 04:22:38;;;;;;;;;13.67;13.67;;;;;22.24;98.07;99841.75;6281132;20;3526509;-55
2023/07/18 04:25:07;;;;;;;;;12.50;12.00;;;;;22.43;98.30;99840.59;6276166;20;2801811;-49
2023/07/18 04:27:35;;;;;;;;;11.33;11.00;;;;;22.52;96.89;99835.00;6276167;20;2498235;-52
2023/07/18 04:30:04;;;;;;;;;15.00;13.67;;;;;22.63;96.12;99835.69;6310315;20;2483746;-52
2023/07/18 04:32:32;;;;;;;;;14.00;13.67;;;;;22.89;93.81;99841.88;6310836;20;2483692;-49
2023/07/18 04:35:01;;;;;;;;;12.33;12.00;;;;;22.89;94.24;99838.28;6309904;20;3508705;-49
2023/07/18 04:37:29;;;;;;;;;13.67;13.67;;;;;22.97;94.05;99844.66;6276923;20;2483758;-51
2023/07/18 04:39:57;;;;;;;;;13.33;12.33;;;;;23.14;93.06;99841.91;6305475;20;2491964;-49
2023/07/18 04:42:25;;;;;;;;;15.33;12.33;;;;;23.22;94.19;99852.84;6306644;20;3514919;-49
2023/07/18 04:44:53;;;;;;;;;12.00;12.00;;;;;23.42;92.93;99843.25;6312483;20;3530476;-51
2023/07/18 04:47:22;;;;;;;;;13.00;12.67;;;;;23.80;90.54;99854.53;6306509;20;3547228;-51
2023/07/18 04:49:50;;;;;;;;;14.00;12.33;;;;;23.86;91.03;99853.81;6279260;20;2483616;-50
2023/07/18 04:52:18;;;;;;;;;12.00;12.00;;;;;23.61;92.68;99841.16;6305558;20;3514941;-52
2023/07/18 04:54:46;;;;;;;;;11.00;11.00;;;;;23.86;92.23;99845.59;6313051;20;2790122;-48
2023/07/18 04:57:14;;;;;;;;;11.67;11.67;;;;;24.13;89.74;99848.91;6307222;20;3526300;-49
2023/07/18 04:59:43;;;;;;;;;13.67;13.33;;;;;24.06;90.95;99856.13;6276016;20;3525452;-53
2023/07/18 05:02:11;;;;;;;;;12.67;12.67;;;;;24.21;89.57;99854.34;6276201;20;3522169;-52
2023/07/18 05:04:39;;;;;;;;;10.33;10.00;;;;;24.77;86.43;99858.88;6277882;20;3510687;-49
2023/07/18 05:07:08;;;;;;;;;11.33;11.33;;;;;24.83;85.30;99860.88;6308241;20;3508646;-49
2023/07/18 05:09:37;;;;;;;;;11.20;9.40;;;;;24.96;82.96;99866.63;6301198;20;2771121;-53
2023/07/18 05:12:06;;;;;;;;;10.67;10.67;;;;;25.11;81.91;99867.53;6276804;20;3518007;-55
2023/07/18 05:14:34;;;;;;;;;11.33;11.33;;;;;25.26;81.72;99869.53;6309036;20;2483664;-48
2023/07/18 05:17:02;;;;;;;;;10.00;10.00;;;;;25.57;78.87;99875.75;6306367;20;2791990;-56
2023/07/18 05:19:31;;;;;;;;;10.00;10.00;;;;;26.28;76.86;99887.19;6307770;20;3497545;-52
2023/07/18 05:21:58;;;;;;;;;10.33;10.33;;;;;25.97;77.18;99890.16;6312305;20;2484104;-53
2023/07/18 05:24:27;;;;;;;;;12.00;12.00;;;;;25.81;79.68;99882.91;6308075;20;3501499;-53
2023/07/18 05:26:55;;;;;;;;;12.00;12.00;;;;;25.71;78.96;99901.56;6307762;20;3519040;-56
2023/07/18 05:29:23;;;;;;;;;8.67;8.67;;;;;25.72;78.17;99907.91;6283815;20;3462956;-49
2023/07/18 05:31:51;;;;;;;;;10.50;10.50;;;;;25.86;77.42;99904.38;6316314;20;2483632;-50
2023/07/18 05:34:19;;;;;;;;;11.00;11.00;;;;;25.98;76.14;99902.84;6314063;20;3532753;-52
2023/07/18 05:36:47;;;;;;;;;11.00;9.67;;;;;26.16;76.01;99916.25;6280929;20;3500392;-49
2023/07/18 05:39:15;;;;;;;;;12.33;12.33;;;;;26.45;75.12;99917.25;6316823;20;3506570;-49
2023/07/18 05:41:43;;;;;;;;;12.00;12.00;;;;;26.37;75.29;99917.38;6313668;20;3525683;-51
2023/07/18 05:44:12;;;;;;;;;11.67;11.33;;;;;26.58;75.37;99916.63;6312539;20;3514065;-51
2023/07/18 05:46:40;;;;;;;;;9.67;8.67;;;;;26.58;74.42;99924.88;6280431;20;3494047;-55
2023/07/18 05:49:08;;;;;;;;;12.00;10.33;;;;;26.61;74.51;99924.50;6314043;20;3513977;-50
2023/07/18 05:51:36;;;;;;;;;9.33;9.33;;;;;26.54;72.76;99921.66;6280113;20;3481535;-52
2023/07/18 05:54:04;;;;;;;;;12.00;12.00;;;;;26.86;73.09;99925.00;6315376;20;3505087;-48
2023/07/18 05:56:33;;;;;;;;;11.00;10.00;;;;;27.10;72.70;99929.31;6313037;20;3513880;-50
2023/07/18 05:59:01;;;;;;;;;12.00;12.00;;;;;27.03;71.16;99928.38;6285657;20;3506542;-50
2023/07/18 06:01:29;;;;;;;;;12.67;11.33;;;;;27.07;71.11;99935.22;6312847;20;2483583;-52
2023/07/18 06:03:58;;;;;;;;;12.00;12.00;;;;;27.18;71.39;99936.63;6316665;20;2784779;-52
2023/07/18 06:06:26;;;;;;;;;9.00;9.00;;;;;27.36;70.36;99939.78;6322641;20;2633698;-49
2023/07/18 06:08:54;;;;;;;;;11.00;11.00;;;;;27.48;69.39;99938.19;6312546;20;2483669;-54
2023/07/18 06:11:23;;;;;;;;;12.00;12.00;;;;;27.54;69.03;99942.03;6318078;20;3535684;-52
2023/07/18 06:13:51;;;;;;;;;9.00;9.00;;;;;27.51;68.33;99936.94;6314102;20;3463863;-52
2023/07/18 06:16:19;;;;;;;;;9.67;9.67;;;;;27.58;68.20;99932.31;6312955;20;3495095;-51
2023/07/18 06:18:47;;;;;;;;;13.00;11.33;;;;;27.74;66.96;99944.97;6316405;20;2483790;-54
2023/07/18 06:21:15;;;;;;;;;9.67;9.67;;;;;27.79;67.73;99934.19;6314448;20;3495252;-53
2023/07/18 06:23:44;;;;;;;;;10.00;10.00;;;;;28.21;65.71;99938.78;6317733;20;2483631;-49
2023/07/18 06:26:14;;;;;;;;;11.33;11.00;;;;;28.28;64.15;99944.34;6318223;20;2483577;-52
2023/07/18 06:28:42;;;;;;;;;9.67;8.33;;;;;28.18;64.36;99949.38;6314481;20;3489087;-54
2023/07/18 06:31:10;;;;;;;;;11.00;9.00;;;;;28.12;62.15;99947.41;6310950;20;3449237;-55
2023/07/18 06:33:38;;;;;;;;;12.00;12.00;;;;;28.78;62.12;99944.16;6311637;20;3515992;-50
2023/07/18 06:36:07;;;;;;;;;9.33;9.33;;;;;28.86;60.43;99953.16;6282030;20;3477472;-53
2023/07/18 06:38:35;;;;;;;;;11.33;11.33;;;;;29.01;59.03;99952.97;6314453;20;2483616;-54
2023/07/18 06:41:03;;;;;;;;;10.00;10.00;;;;;29.25;58.87;99951.59;6312168;20;3512870;-53
2023/07/18 06:43:32;;;;;;;;;6.33;6.33;;;;;29.51;57.65;99956.28;6311074;20;2745093;-52
2023/07/18 06:46:00;;;;;;;;;11.00;10.00;;;;;29.61;57.32;99961.41;6315263;20;3511105;-52
2023/07/18 06:48:28;;;;;;;;;10.67;9.00;;;;;30.01;55.39;99978.03;6289393;20;2768070;-52
2023/07/18 06:50:59;;;;;;;;;8.67;8.67;;;;;29.62;54.68;99973.31;6311420;20;2752442;-51
2023/07/18 06:53:27;;;;;;;;;8.00;8.00;;;;;30.20;52.79;99968.00;6321395;20;2750302;-53
2023/07/18 06:55:55;;;;;;;;;11.00;8.00;;;;;30.15;52.11;99971.44;6309748;20;3477454;-54
2023/07/18 06:58:23;;;;;;;;;8.00;8.00;;;;;30.53;49.88;99967.97;6313163;20;2750283;-54
2023/07/18 07:00:51;;;;;;;;;6.33;6.33;;;;;30.63;50.09;99965.59;6312483;20;2747155;-53
2023/07/18 07:03:19;;;;;;;;;8.67;8.67;;;;;30.62;50.00;99960.25;6313088;20;2752834;-52
2023/07/18 07:05:47;;;;;;;;;10.33;10.00;;;;;31.06;48.54;99964.97;6313087;20;3505588;-52
2023/07/18 07:08:18;;;;;;;;;8.67;8.67;;;;;31.45;48.24;99967.78;6315315;20;2752460;-53
2023/07/18 07:10:46;;;;;;;;;8.67;7.67;;;;;31.24;47.55;99972.56;6321073;20;2737786;-50
2023/07/18 07:13:14;;;;;;;;;9.33;9.33;;;;;31.61;47.07;99983.88;6321543;20;2762854;-53
2023/07/18 07:15:42;;;;;;;;;9.00;8.00;;;;;31.75;45.41;99983.78;6309444;20;3473206;-55
2023/07/18 07:18:10;;;;;;;;;8.00;8.00;;;;;31.87;43.25;99985.59;6318170;20;2756601;-54
2023/07/18 07:20:39;;;;;;;;;11.33;10.00;;;;;31.81;44.08;99983.75;6312143;20;3508700;-53
2023/07/18 07:23:06;;;;;;;;;6.67;6.67;;;;;31.73;44.37;99992.34;6318567;20;2745068;-51
2023/07/18 07:25:35;;;;;;;;;8.33;8.33;;;;;31.73;44.49;99992.34;6313053;20;2744129;-55
2023/07/18 07:28:04;;;;;;;;;9.00;9.00;;;;;32.24;43.02;99994.06;6308041;20;3467009;-52
2023/07/18 07:30:32;;;;;;;;;7.67;7.67;;;;;32.44;41.81;99999.41;6310652;20;3457569;-52
2023/07/18 07:33:00;;;;;;;;;9.00;7.67;;;;;31.88;40.19;99994.78;6319992;20;2754441;-55
2023/07/18 07:35:29;;;;;;;;;8.00;8.00;;;;;32.22;41.44;99996.22;6311247;20;3460720;-54
2023/07/18 07:37:58;;;;;;;;;7.33;7.33;;;;;32.49;41.46;100004.28;6312419;20;2752480;-54
2023/07/18 07:40:26;;;;;;;;;9.33;8.33;;;;;32.74;39.27;99993.13;6314159;20;2759667;-55
2023/07/18 07:42:55;;;;;;;;;9.33;7.67;;;;;32.49;40.20;100002.41;6308101;20;2754457;-54
2023/07/18 07:45:23;;;;;;;;;9.33;8.00;;;;;32.34;39.15;100004.66;6315480;20;2745121;-51
2023/07/18 07:47:51;;;;;;;;;7.67;7.67;;;;;32.47;39.99;99998.13;6307849;20;3445559;-55
2023/07/18 07:50:19;;;;;;;;;10.00;9.00;;;;;33.08;39.51;100005.56;6321580;20;2773312;-56
2023/07/18 07:52:47;;;;;;;;;6.00;6.00;;;;;33.16;34.99;100009.94;6310904;20;2733622;-50
2023/07/18 07:55:16;;;;;;;;;7.33;7.33;;;;;32.80;35.12;100006.09;6308963;20;2750293;-55
2023/07/18 07:57:44;;;;;;;;;5.33;5.33;;;;;33.33;34.48;100001.78;6310361;20;2740935;-55
2023/07/18 08:00:12;;;;;;;;;9.67;6.67;;;;;33.09;35.84;100000.84;6312500;20;2755499;-54
2023/07/18 08:02:40;;;;;;;;;9.67;8.33;;;;;33.20;35.37;99994.47;6312206;20;2767052;-59
2023/07/18 08:05:09;;;;;;;;;9.67;8.33;;;;;33.22;35.21;99995.09;6314246;20;2756686;-52
2023/07/18 08:07:38;;;;;;;;;7.00;5.00;;;;;33.34;36.25;100001.56;6311193;20;2740028;-57
2023/07/18 08:10:06;;;;;;;;;9.33;6.67;;;;;33.01;34.74;100011.19;6311068;20;2772164;-52
2023/07/18 08:12:34;;;;;;;;;7.67;6.00;;;;;33.23;33.90;100005.16;6320654;20;2738799;-58
2023/07/18 08:15:04;;;;;;;;;6.67;6.33;;;;;32.86;34.46;100002.41;6312193;20;2743032;-49
2023/07/18 08:17:31;;;;;;;;;7.00;7.00;;;;;32.65;33.76;100011.19;6319588;20;2738818;-47
2023/07/18 08:19:59;;;;;;;;;8.00;7.00;;;;;33.21;32.64;100010.94;6320597;20;2736778;-53
2023/07/18 08:22:29;;;;;;;;;10.00;8.00;;;;;33.42;33.01;100006.78;6321515;20;2762840;-54
2023/07/18 08:24:57;;;;;;;;;7.67;7.67;;;;;33.34;32.92;100014.63;6308097;20;2754452;-51
2023/07/18 08:27:25;;;;;;;;;9.00;8.33;;;;;33.35;33.95;100017.16;6319341;20;2750383;-51
2023/07/18 08:29:53;;;;;;;;;6.67;5.33;;;;;33.25;32.86;100022.44;6321526;20;2739836;-55
2023/07/18 08:32:21;;;;;;;;;7.00;7.00;;;;;33.26;32.68;100018.59;6314486;20;2728449;-49
2023/07/18 08:34:49;;;;;;;;;6.00;5.00;;;;;32.79;34.40;100012.75;6309578;20;2734703;-56
2023/07/18 08:37:17;;;;;;;;;7.33;7.33;;;;;32.53;35.00;100013.88;6313276;20;2744149;-49
2023/07/18 08:39:45;;;;;;;;;7.00;7.00;;;;;32.87;35.99;100020.78;6310776;20;2735800;-54
2023/07/18 08:42:14;;;;;;;;;4.00;4.00;;;;;32.73;35.14;100016.44;6311682;20;2756532;-53
2023/07/18 08:44:45;;;;;;;;;8.67;7.67;;;;;32.78;35.21;100017.47;6311296;20;2757599;-53
2023/07/18 08:47:13;;;;;;;;;7.67;6.67;;;;;33.11;33.58;100015.38;6305486;20;3457701;-52
2023/07/18 08:49:41;;;;;;;;;9.00;7.00;;;;;33.29;33.03;100009.78;6311445;20;2741211;-56
2023/07/18 08:52:09;;;;;;;;;7.67;7.00;;;;;32.71;35.14;100021.41;6318254;20;2748308;-59
2023/07/18 08:54:37;;;;;;;;;5.67;5.67;;;;;32.46;35.61;100013.91;6311059;20;2735828;-59
2023/07/18 08:57:06;;;;;;;;;9.33;8.33;;;;;32.67;34.68;100012.66;6315725;20;2758707;-54
2023/07/18 08:59:34;;;;;;;;;9.00;9.00;;;;;32.31;35.89;100007.91;6306442;20;3460760;-53
2023/07/18 09:02:03;;;;;;;;;7.67;7.67;;;;;32.54;35.57;100013.63;6316832;20;2744179;-56
2023/07/18 09:04:32;;;;;;;;;11.00;9.33;;;;;32.67;36.04;100009.03;6318226;20;2774373;-52
2023/07/18 09:07:02;;;;;;;;;9.00;9.00;;;;;32.62;35.52;100011.66;6322948;20;2750264;-58
2023/07/18 09:09:30;;;;;;;;;7.33;7.33;;;;;32.87;34.46;100003.25;6317441;20;2746273;-50
2023/07/18 09:12:04;;;;;;;;;7.33;7.33;;;;;32.35;34.89;100001.63;6318752;20;2752998;-50
2023/07/18 09:14:34;;;;;;;;;8.67;8.67;;;;;32.48;34.94;100000.69;6315835;20;3484839;-55
2023/07/18 09:17:06;;;;;;;;;7.00;6.00;;;;;32.91;34.74;100002.50;6318941;20;2731561;-53
2023/07/18 09:19:43;;;;;;;;;8.33;6.33;;;;;32.78;33.76;99998.00;6315430;20;3470048;-57
2023/07/18 09:22:19;;;;;;;;;7.67;7.33;;;;;32.69;34.96;100002.16;6317351;20;3463836;-49
2023/07/18 09:24:47;;;;;;;;;7.00;7.00;;;;;32.28;35.23;99986.97;6327449;20;2745061;-54
2023/07/18 09:27:19;;;;;;;;;7.33;7.33;;;;;31.99;34.72;99985.72;6325765;20;2738966;-56
2023/07/18 09:29:48;;;;;;;;;9.00;7.67;;;;;32.22;34.71;99993.44;6317719;20;2754530;-53
2023/07/18 09:32:21;;;;;;;;;7.33;5.00;;;;;31.75;35.66;99990.19;6321693;20;2750298;-59
2023/07/18 09:34:55;;;;;;;;;2.00;2.00;;;;;31.77;35.87;99987.19;6319333;20;2731607;-51
2023/07/18 09:37:23;;;;;;;;;10.00;6.33;;;;;32.29;34.49;99990.59;6319026;20;2758786;-51
2023/07/18 09:39:51;;;;;;;;;9.67;7.67;;;;;32.80;34.83;99990.25;6320292;20;2762795;-51
2023/07/18 09:42:21;;;;;;;;;7.00;7.00;;;;;33.05;34.22;99988.50;6314341;20;2748281;-53
2023/07/18 09:44:50;;;;;;;;;9.33;8.00;;;;;33.81;33.60;99993.38;6316788;20;2753476;-51
2023/07/18 09:47:20;;;;;;;;;8.00;8.00;;;;;32.65;34.91;99991.72;6316365;20;2741970;-48
2023/07/18 09:49:50;;;;;;;;;6.00;5.00;;;;;32.75;33.85;99987.31;6324032;20;2745067;-49
2023/07/18 09:52:26;;;;;;;;;6.67;6.67;;;;;32.21;34.34;99982.56;6327298;20;2747302;-56
2023/07/18 09:54:56;;;;;;;;;6.67;5.67;;;;;32.78;33.91;99983.22;6316368;20;2742979;-51
2023/07/18 09:57:26;;;;;;;;;7.33;6.33;;;;;32.90;33.91;99980.50;6311090;20;2748345;-55
2023/07/18 10:00:05;;;;;;;;;9.33;6.33;;;;;33.31;33.13;99977.00;6311610;20;2749250;-48
2023/07/18 10:02:34;;;;;;;;;7.33;7.33;;;;;32.82;32.67;99981.69;6313333;20;3457557;-52
2023/07/18 10:05:03;;;;;;;;;7.67;7.67;;;;;32.76;33.62;99968.72;6310499;20;2745589;-50
2023/07/18 10:07:35;;;;;;;;;7.00;7.00;;;;;32.27;34.88;99959.41;6315643;20;2733631;-49
2023/07/18 10:10:09;;;;;;;;;9.00;7.67;;;;;32.36;34.46;99970.00;6320610;20;2754434;-52
2023/07/18 10:13:01;;;;;;;;;8.33;8.33;;;;;31.40;35.64;99965.66;6320292;20;2750454;-50
2023/07/18 10:15:30;;;;;;;;;9.67;8.00;;;;;31.59;35.89;99968.53;6323057;20;2753492;-50
2023/07/18 10:18:17;;;;;;;;;8.33;8.33;;;;;31.54;35.99;99954.47;6323893;20;2745215;-48
2023/07/18 10:20:58;;;;;;;;;6.67;6.67;;;;;31.48;36.13;99945.97;6324224;20;2747159;-50
2023/07/18 10:23:41;;;;;;;;;7.33;7.00;;;;;32.16;35.14;99963.78;6315691;20;2753463;-60
2023/07/18 10:26:09;;;;;;;;;1.00;1.00;;;;;32.46;34.29;99958.31;6319661;20;2735920;-62
2023/07/18 10:28:46;;;;;;;;;7.00;7.00;;;;;32.22;34.19;99959.25;6323717;20;2735775;-59
2023/07/18 10:31:33;;;;;;;;;10.00;8.00;;;;;32.69;34.58;99960.44;6314200;20;3488822;-54
2023/07/18 10:34:09;;;;;;;;;9.33;9.00;;;;;33.26;32.99;99946.22;6314149;20;3473312;-50
2023/07/18 10:37:01;;;;;;;;;8.33;7.33;;;;;33.11;32.97;99955.00;6317461;20;2751319;-54
2023/07/18 10:39:39;;;;;;;;;9.33;8.00;;;;;32.68;34.01;99950.41;6315260;20;2753560;-58
2023/07/18 10:42:20;;;;;;;;;7.33;7.33;;;;;32.35;34.91;99950.75;6310819;20;2739940;-53
2023/07/18 10:44:53;;;;;;;;;8.33;7.00;;;;;32.43;34.32;99950.44;6312393;20;3457500;-56
2023/07/18 10:47:21;;;;;;;;;7.00;7.00;;;;;33.02;34.24;99953.63;6313237;20;2732627;-56
2023/07/18 10:49:49;;;;;;;;;7.33;6.33;;;;;32.54;34.08;99941.34;6315961;20;2735779;-50
2023/07/18 10:52:19;;;;;;;;;7.67;6.67;;;;;33.06;33.93;99942.88;6324205;20;2739966;-62
2023/07/18 10:54:51;;;;;;;;;8.33;6.33;;;;;33.35;33.37;99921.69;6317004;20;2729440;-60
2023/07/18 10:57:29;;;;;;;;;10.67;9.67;;;;;32.03;35.02;99922.25;6313562;20;3505735;-61
2023/07/18 10:59:58;;;;;;;;;9.00;9.00;;;;;31.92;35.67;99907.16;6312905;20;2752461;-60
2023/07/18 11:02:28;;;;;;;;;8.67;7.67;;;;;31.92;35.89;99902.47;6311056;20;3459637;-61
2023/07/18 11:04:56;;;;;;;;;10.00;9.67;;;;;32.12;34.64;99905.06;6310828;20;3491928;-60
2023/07/18 11:07:33;;;;;;;;;12.00;8.67;;;;;32.29;34.75;99910.84;6322224;20;2769049;-59
2023/07/18 11:10:01;;;;;;;;;8.00;7.67;;;;;33.40;32.73;99905.94;6314353;20;2748391;-54
2023/07/18 11:12:29;;;;;;;;;9.33;8.00;;;;;32.06;32.74;99899.56;6314903;20;2758602;-58
2023/07/18 11:14:57;;;;;;;;;7.67;7.67;;;;;31.51;34.12;99894.69;6313807;20;2753521;-59